Time;durP1;ratioP1;P1;durP2;ratioP2;P2;SDS_P1;SDS_P2;PMS_P1;PMS_P2;Temp;Humidity;BMP_temperature;BMP_pressure;BME280_temperature;BME280_humidity;BME280_pressure;Samples;Min_cycle;Max_cycle;Signal;HPM_P1;HPM_P2
2021/11/17 02:35:58;;;;;;;;;53.50;40.25;;;;;11.77;71.59;101815.03;5047299;22;47734;-83
2021/11/17 02:38:33;;;;;;;;;57.50;39.25;;;;;11.73;71.33;101818.50;5029710;22;48546;-79
2021/11/17 02:41:36;;;;;;;;;56.25;41.50;;;;;11.66;71.65;101829.78;5039140;22;45765;-80
2021/11/17 02:46:47;;;;;;;;;60.75;37.50;;;;;11.57;71.55;101845.47;1086399;22;46324;-80
2021/11/17 02:51:48;;;;;;;;;57.50;44.25;;;;;11.46;71.63;101861.06;4399044;22;45915;-78
2021/11/17 02:54:22;;;;;;;;;52.50;38.25;;;;;11.43;71.70;101863.63;5091594;22;45676;-79
2021/11/17 02:59:31;;;;;;;;;54.00;40.00;;;;;11.48;71.60;101862.00;3802322;22;45368;-80
2021/11/17 03:04:56;;;;;;;;;57.75;42.50;;;;;11.52;71.70;101864.75;5056514;22;45617;-81
2021/11/17 03:07:31;;;;;;;;;53.25;40.50;;;;;11.53;71.77;101863.88;5070348;22;45306;-82
2021/11/17 03:12:41;;;;;;;;;58.25;41.75;;;;;11.52;71.80;101875.34;1175080;22;46189;-81
2021/11/17 03:15:15;;;;;;;;;58.00;39.25;;;;;11.54;71.98;101873.59;5084359;22;45504;-81
2021/11/17 03:18:03;;;;;;;;;63.25;41.50;;;;;11.50;71.82;101871.78;5069850;22;45299;-81
2021/11/17 03:20:53;;;;;;;;;50.00;40.50;;;;;11.55;72.01;101896.53;5064606;22;45840;-83
2021/11/17 03:23:46;;;;;;;;;58.50;42.00;;;;;11.55;72.04;101899.19;5056807;28;45437;-80
2021/11/17 03:26:36;;;;;;;;;58.00;41.00;;;;;11.57;71.94;101899.25;5057683;28;45467;-80
2021/11/17 03:29:25;;;;;;;;;57.50;40.50;;;;;11.60;71.95;101906.34;5058512;28;45231;-81
2021/11/17 03:32:28;;;;;;;;;52.50;39.75;;;;;11.62;71.95;101915.25;5058003;28;47693;-80
2021/11/17 03:35:24;;;;;;;;;57.75;42.25;;;;;11.59;72.19;101897.53;5047269;28;45527;-81
2021/11/17 03:38:08;;;;;;;;;58.25;44.25;;;;;11.60;71.96;101898.41;5040718;28;45255;-80
2021/11/17 03:40:42;;;;;;;;;61.00;41.50;;;;;11.60;72.04;101896.66;5058475;28;46165;-81
2021/11/17 03:44:04;;;;;;;;;56.75;41.50;;;;;11.61;72.11;101900.19;5058204;28;47783;-81
2021/11/17 03:46:42;;;;;;;;;54.50;40.75;;;;;11.61;72.14;101905.50;4975994;28;45389;-85
2021/11/17 03:49:22;;;;;;;;;60.25;42.50;;;;;11.60;72.13;101915.19;4976596;28;45462;-85
2021/11/17 03:52:05;;;;;;;;;57.25;43.50;;;;;11.62;72.23;101924.06;5039196;28;45342;-81
2021/11/17 03:55:04;;;;;;;;;53.00;42.25;;;;;11.65;72.01;101917.94;5055124;28;46727;-79
2021/11/17 03:57:29;;;;;;;;;54.00;42.50;;;;;11.67;72.24;101927.72;5057986;28;45371;-83
2021/11/17 04:00:16;;;;;;;;;57.00;41.00;;;;;11.70;72.10;101925.13;5039936;28;45232;-81
2021/11/17 04:03:27;;;;;;;;;62.25;43.75;;;;;11.73;72.01;101919.03;5058313;28;45459;-80
2021/11/17 04:06:01;;;;;;;;;56.00;41.50;;;;;11.77;71.81;101931.44;5053263;28;45603;-81
2021/11/17 04:08:44;;;;;;;;;60.25;41.25;;;;;11.80;72.22;101926.25;5057694;28;45336;-80
2021/11/17 04:11:35;;;;;;;;;63.50;43.00;;;;;11.80;72.10;101928.88;5057941;28;45335;-80
2021/11/17 04:14:24;;;;;;;;;55.00;42.00;;;;;11.81;71.95;101941.25;5042971;28;46032;-80
2021/11/17 04:17:22;;;;;;;;;57.00;40.75;;;;;11.84;71.92;101940.47;5057432;28;47313;-80
2021/11/17 04:20:04;;;;;;;;;57.00;41.50;;;;;11.81;71.82;101933.31;5024578;28;45399;-80
2021/11/17 04:22:54;;;;;;;;;55.50;41.75;;;;;11.87;71.98;101945.81;5038186;28;45500;-84
2021/11/17 04:25:26;;;;;;;;;56.00;43.75;;;;;11.88;72.23;101947.63;5055857;28;45481;-82
2021/11/17 04:28:19;;;;;;;;;57.50;43.75;;;;;11.88;72.01;101945.88;5055258;28;46514;-79
2021/11/17 04:30:48;;;;;;;;;54.75;41.75;;;;;11.85;72.15;101944.91;5038028;28;45500;-80
2021/11/17 04:33:35;;;;;;;;;52.50;39.75;;;;;11.88;72.19;101956.47;5056241;28;45447;-84
2021/11/17 04:36:19;;;;;;;;;50.50;40.00;;;;;11.88;72.28;101956.47;5055545;28;45155;-82
2021/11/17 04:39:09;;;;;;;;;55.25;43.50;;;;;11.88;72.29;101960.84;5055752;28;46981;-80
2021/11/17 04:41:58;;;;;;;;;53.75;37.75;;;;;11.88;72.24;101959.13;5037636;28;45489;-80
2021/11/17 04:45:00;;;;;;;;;54.00;38.50;;;;;11.84;72.38;101946.66;5055989;28;45413;-82
2021/11/17 04:47:52;;;;;;;;;50.75;38.50;;;;;11.90;72.43;101946.81;5047189;28;45759;-81
2021/11/17 04:50:36;;;;;;;;;57.25;40.50;;;;;11.90;72.39;101954.75;5017674;28;45532;-81
2021/11/17 04:53:07;;;;;;;;;52.25;39.50;;;;;11.91;72.59;101953.88;5055645;28;45421;-80
2021/11/17 04:55:34;;;;;;;;;48.75;37.75;;;;;11.92;72.36;101947.72;5044525;28;45527;-79
2021/11/17 04:58:14;;;;;;;;;54.75;38.00;;;;;11.93;72.62;101949.53;5055607;28;45260;-80
2021/11/17 05:00:58;;;;;;;;;54.25;39.25;;;;;11.95;73.06;101945.16;5055954;28;46600;-80
2021/11/17 05:03:56;;;;;;;;;53.00;35.25;;;;;11.95;73.09;101939.88;5055763;28;45387;-80
2021/11/17 05:07:02;;;;;;;;;57.25;40.00;;;;;11.93;72.96;101944.25;5012372;28;45356;-79
2021/11/17 05:09:37;;;;;;;;;55.75;41.00;;;;;11.98;73.14;101953.16;5010787;28;45468;-80
2021/11/17 05:12:28;;;;;;;;;50.25;38.00;;;;;11.96;72.98;101948.69;5055561;28;45645;-80
2021/11/17 05:15:24;;;;;;;;;51.00;41.50;;;;;12.01;73.28;101952.34;5076613;23;1156161;-83
2021/11/17 05:17:58;;;;;;;;;49.75;39.00;;;;;12.00;73.31;101948.81;5095930;27;45305;-80
2021/11/17 05:20:27;;;;;;;;;56.00;42.25;;;;;12.02;73.53;101955.03;5096902;27;45631;-81
2021/11/17 05:22:52;;;;;;;;;53.25;41.75;;;;;11.99;73.22;101952.31;5095288;27;46574;-79
2021/11/17 05:25:20;;;;;;;;;57.00;42.25;;;;;12.05;73.39;101951.56;5097215;27;45632;-80
2021/11/17 05:27:52;;;;;;;;;53.75;40.00;;;;;12.05;73.32;101960.41;5097113;27;45291;-80
2021/11/17 05:30:45;;;;;;;;;57.75;42.00;;;;;12.06;73.20;101954.25;5088644;27;45508;-80
2021/11/17 05:33:45;;;;;;;;;53.00;41.75;;;;;12.03;73.50;101934.75;5097164;27;46844;-80
2021/11/17 05:36:38;;;;;;;;;53.25;39.50;;;;;12.09;73.32;101947.22;5078886;27;45375;-81
2021/11/17 05:39:15;;;;;;;;;53.00;38.25;;;;;12.10;73.54;101949.03;5097429;27;45649;-80
2021/11/17 05:41:40;;;;;;;;;47.75;37.50;;;;;12.10;73.53;101941.09;5097563;27;45493;-80
2021/11/17 05:44:21;;;;;;;;;58.25;42.75;;;;;12.12;73.28;101932.31;5078975;27;48523;-83
2021/11/17 05:47:12;;;;;;;;;54.00;40.75;;;;;12.13;73.46;101938.50;5096886;27;45208;-81
2021/11/17 05:49:46;;;;;;;;;54.75;39.25;;;;;12.13;73.32;101922.59;5073410;28;45474;-82
2021/11/17 05:52:53;;;;;;;;;51.75;40.25;;;;;12.14;73.56;101932.31;5100105;22;45281;-80
2021/11/17 05:55:22;;;;;;;;;51.25;39.50;;;;;12.15;73.65;101936.78;5059229;28;46406;-80
2021/11/17 05:57:50;;;;;;;;;40.75;34.00;;;;;12.15;73.80;101920.91;5080230;28;45311;-80
2021/11/17 06:00:34;;;;;;;;;45.75;36.75;;;;;12.16;73.58;101917.38;5080117;28;46857;-81
2021/11/17 06:03:20;;;;;;;;;43.50;32.75;;;;;12.17;73.54;101920.06;5080067;28;45393;-80
2021/11/17 06:05:45;;;;;;;;;49.00;35.25;;;;;12.17;73.53;101929.75;5080137;28;47004;-80
2021/11/17 06:08:10;;;;;;;;;48.00;38.00;;;;;12.17;73.64;101913.88;5079707;28;45550;-83
2021/11/17 06:10:36;;;;;;;;;51.00;36.00;;;;;12.17;73.56;101916.53;5080293;28;45281;-80
2021/11/17 06:13:03;;;;;;;;;41.50;32.50;;;;;12.15;73.56;101924.44;5045073;28;45594;-80
2021/11/17 06:15:29;;;;;;;;;44.75;34.00;;;;;12.16;73.66;101920.03;5061806;28;47672;-80
2021/11/17 06:17:54;;;;;;;;;39.25;32.00;;;;;12.17;73.54;101920.06;5044858;28;52489;-80
2021/11/17 06:20:20;;;;;;;;;34.50;31.00;;;;;12.18;73.62;101918.31;5044677;28;45437;-80
2021/11/17 06:22:49;;;;;;;;;41.00;30.50;;;;;12.16;73.37;101912.09;5034199;28;46510;-80
2021/11/17 06:25:15;;;;;;;;;38.25;31.50;;;;;12.15;73.47;101921.78;5044021;28;45706;-80
2021/11/17 06:27:42;;;;;;;;;38.75;33.25;;;;;12.20;73.53;101927.19;5036851;28;45400;-79
2021/11/17 06:30:10;;;;;;;;;43.00;34.25;;;;;12.21;73.31;101928.97;5063732;28;45485;-80
2021/11/17 06:32:35;;;;;;;;;43.50;32.50;;;;;12.21;73.37;101931.63;5061209;28;45453;-76
2021/11/17 06:35:01;;;;;;;;;43.00;31.25;;;;;12.21;73.29;101935.16;5076995;28;57357;-75
2021/11/17 06:37:27;;;;;;;;;47.00;33.75;;;;;12.21;73.61;101929.88;5077823;28;46445;-76
2021/11/17 06:39:55;;;;;;;;;39.25;27.75;;;;;12.22;73.30;101938.72;5061514;28;45459;-77
2021/11/17 06:42:40;;;;;;;;;41.00;30.00;;;;;12.18;73.51;101948.31;5079488;28;45292;-76
2021/11/17 06:45:12;;;;;;;;;48.75;37.75;;;;;12.16;73.25;101950.06;5060690;28;47568;-76
2021/11/17 06:47:37;;;;;;;;;46.00;31.50;;;;;12.14;73.44;101950.88;5088572;27;45479;-76
2021/11/17 06:50:03;;;;;;;;;40.25;33.50;;;;;12.09;73.29;101937.56;5074347;27;45719;-78
2021/11/17 06:52:28;;;;;;;;;31.25;25.75;;;;;12.10;73.92;101949.91;5047549;27;45901;-74
2021/11/17 06:54:54;;;;;;;;;37.75;32.00;;;;;12.09;74.28;101963.09;5076829;27;59213;-73
2021/11/17 06:57:19;;;;;;;;;38.00;33.75;;;;;12.04;74.95;101963.03;5083677;27;56901;-73
2021/11/17 06:59:45;;;;;;;;;37.50;31.75;;;;;12.04;74.14;101965.66;5084134;27;45861;-72
2021/11/17 07:02:11;;;;;;;;;36.25;31.00;;;;;12.00;74.79;101975.28;5077044;28;45246;-73
2021/11/17 07:04:36;;;;;;;;;37.25;32.50;;;;;11.97;75.10;101971.66;5075618;27;47512;-73
2021/11/17 07:07:03;;;;;;;;;46.50;34.25;;;;;11.92;75.61;101973.31;5060187;28;45414;-72
2021/11/17 07:09:28;;;;;;;;;50.25;36.00;;;;;11.86;76.62;101982.00;5077701;28;45443;-73
2021/11/17 07:11:53;;;;;;;;;44.50;32.75;;;;;11.85;75.64;101996.09;5076855;27;45285;-73
2021/11/17 07:14:22;;;;;;;;;35.50;28.75;;;;;11.80;77.03;102001.22;5073404;27;54771;-73
2021/11/17 07:16:47;;;;;;;;;37.75;29.25;;;;;11.73;77.56;101999.28;5074183;27;45546;-73
2021/11/17 07:19:13;;;;;;;;;48.25;31.00;;;;;11.54;77.38;101981.16;5055011;28;45364;-73
2021/11/17 07:21:38;;;;;;;;;34.00;31.25;;;;;11.65;77.02;102008.78;5077467;27;46498;-73
2021/11/17 07:24:04;;;;;;;;;46.50;34.25;;;;;11.63;77.61;102004.31;5076696;28;46464;-73
2021/11/17 07:26:30;;;;;;;;;34.75;29.25;;;;;11.71;76.72;102018.63;5071853;27;45513;-75
2021/11/17 07:28:55;;;;;;;;;38.25;30.50;;;;;11.75;76.32;102020.50;5079515;27;45494;-74
2021/11/17 07:31:20;;;;;;;;;45.75;34.75;;;;;11.80;76.75;102029.44;5082153;27;55262;-74
2021/11/17 07:33:46;;;;;;;;;38.50;32.00;;;;;11.85;76.21;102035.78;5076576;27;45700;-75
2021/11/17 07:36:11;;;;;;;;;44.75;31.50;;;;;11.90;76.13;102035.91;5061683;28;58579;-74
2021/11/17 07:38:37;;;;;;;;;40.75;34.00;;;;;11.89;75.71;102021.78;5078712;27;45427;-74
2021/11/17 07:41:02;;;;;;;;;48.50;34.25;;;;;11.96;75.87;102041.34;5077134;27;45555;-75
2021/11/17 07:43:28;;;;;;;;;39.75;32.25;;;;;12.00;75.41;102048.50;5075990;27;47124;-74
2021/11/17 07:45:53;;;;;;;;;42.00;33.25;;;;;11.94;75.97;102038.66;5079734;27;45495;-73
2021/11/17 07:48:20;;;;;;;;;45.75;34.25;;;;;11.98;75.75;102045.81;5075478;27;45558;-74
2021/11/17 07:50:45;;;;;;;;;47.50;36.00;;;;;12.05;75.64;102055.69;5075448;27;45657;-73
2021/11/17 07:53:12;;;;;;;;;43.50;33.25;;;;;12.08;75.82;102052.22;5073331;27;45967;-73
2021/11/17 07:55:41;;;;;;;;;40.25;28.25;;;;;12.07;75.62;102053.09;5074294;27;45597;-73
2021/11/17 07:58:07;;;;;;;;;48.75;33.25;;;;;12.07;75.24;102043.38;5044265;28;45565;-72
2021/11/17 08:00:33;;;;;;;;;42.50;30.50;;;;;12.09;75.42;102037.22;5055257;27;45570;-73
2021/11/17 08:03:00;;;;;;;;;49.25;36.75;;;;;12.10;75.35;102039.94;5071938;27;47464;-73
2021/11/17 08:05:25;;;;;;;;;40.50;33.00;;;;;12.14;75.21;102040.88;5053105;28;45503;-77
2021/11/17 08:07:51;;;;;;;;;53.25;36.00;;;;;12.19;75.17;102039.25;5078654;27;45534;-79
2021/11/17 08:10:21;;;;;;;;;39.75;32.75;;;;;12.20;75.21;102036.66;5062653;27;46101;-77
2021/11/17 08:13:49;;;;;;;;;37.75;30.00;;;;;12.26;75.01;102046.50;5040674;28;46297;-77
2021/11/17 08:16:08;;;;;;;;;41.50;30.75;;;;;12.31;75.03;102050.16;5011390;27;45627;-78
2021/11/17 08:18:33;;;;;;;;;36.75;32.00;;;;;12.34;75.15;102055.50;5077465;27;45618;-76
2021/11/17 08:21:02;;;;;;;;;38.50;32.25;;;;;12.40;74.87;102054.75;5051752;28;45603;-77
2021/11/17 08:23:30;;;;;;;;;46.25;34.50;;;;;12.43;74.89;102060.13;5075010;27;47283;-78
2021/11/17 08:25:59;;;;;;;;;46.75;34.50;;;;;12.46;74.75;102055.78;5056704;27;45558;-76
2021/11/17 08:28:24;;;;;;;;;51.75;36.25;;;;;12.50;74.88;102052.34;5057793;28;45534;-76
2021/11/17 08:30:50;;;;;;;;;38.25;32.50;;;;;12.60;74.88;102064.03;5076902;27;45503;-77
2021/11/17 08:33:15;;;;;;;;;40.75;33.50;;;;;12.66;74.49;102055.34;5076713;27;47589;-81
2021/11/17 08:35:41;;;;;;;;;42.50;31.75;;;;;12.74;74.47;102064.34;5058437;27;45581;-77
2021/11/17 08:38:08;;;;;;;;;46.00;32.25;;;;;12.71;74.17;102057.22;5073390;27;45619;-78
2021/11/17 08:40:38;;;;;;;;;39.00;31.00;;;;;12.71;74.12;102062.53;5077760;27;45543;-76
2021/11/17 08:43:08;;;;;;;;;42.25;34.00;;;;;12.70;74.32;102068.69;5076062;27;45694;-79
2021/11/17 08:45:34;;;;;;;;;40.25;33.00;;;;;12.68;74.34;102061.59;5076254;27;45285;-78
2021/11/17 08:47:59;;;;;;;;;40.00;31.75;;;;;12.71;74.36;102070.47;5077037;27;45574;-77
2021/11/17 08:50:27;;;;;;;;;44.50;34.25;;;;;12.73;74.31;102076.72;5077162;28;45434;-80
2021/11/17 08:52:53;;;;;;;;;39.50;32.25;;;;;12.76;74.15;102081.19;5076309;27;46719;-78
2021/11/17 08:55:19;;;;;;;;;41.00;30.50;;;;;12.75;74.23;102074.09;5058522;28;45982;-79
2021/11/17 08:57:47;;;;;;;;;38.75;34.00;;;;;12.74;74.16;102078.50;5077831;27;45578;-82
2021/11/17 09:00:13;;;;;;;;;42.75;30.00;;;;;12.67;74.27;102070.38;5077675;27;45664;-80
2021/11/17 09:02:41;;;;;;;;;39.25;29.25;;;;;12.71;74.24;102073.13;5082381;27;46300;-80
2021/11/17 09:05:13;;;;;;;;;42.00;31.00;;;;;12.78;73.96;102083.00;5063945;27;45441;-78
2021/11/17 09:07:39;;;;;;;;;44.00;34.25;;;;;12.81;74.23;102082.19;5073631;27;45606;-80
2021/11/17 09:10:06;;;;;;;;;44.50;35.00;;;;;12.82;73.95;102079.53;5072456;27;45413;-82
2021/11/17 09:12:32;;;;;;;;;40.25;33.00;;;;;12.85;74.10;102084.03;5079505;27;47671;-82
2021/11/17 09:14:57;;;;;;;;;39.75;31.00;;;;;12.86;74.09;102072.56;5083641;27;54384;-82
2021/11/17 09:17:22;;;;;;;;;44.00;34.00;;;;;12.93;74.10;102085.09;5044999;27;51914;-82
2021/11/17 09:19:50;;;;;;;;;40.75;34.50;;;;;12.93;73.88;102090.38;5077660;27;53214;-80
2021/11/17 09:22:15;;;;;;;;;40.50;31.00;;;;;12.98;74.02;102078.13;5079288;27;46934;-81
2021/11/17 09:24:41;;;;;;;;;38.00;31.75;;;;;13.03;73.92;102092.38;5075562;27;45440;-81
2021/11/17 09:27:06;;;;;;;;;38.25;31.50;;;;;13.07;73.92;102094.22;5075735;27;45512;-79
2021/11/17 09:29:33;;;;;;;;;41.00;33.25;;;;;13.10;73.88;102101.34;5075753;27;45404;-78
2021/11/17 09:31:59;;;;;;;;;39.50;33.50;;;;;13.06;73.69;102105.72;5076309;27;46631;-78
2021/11/17 09:34:24;;;;;;;;;33.75;29.75;;;;;13.14;73.81;102102.31;5061659;27;45371;-82
2021/11/17 09:36:50;;;;;;;;;37.75;30.50;;;;;13.19;73.70;102103.31;5057960;28;46021;-79
2021/11/17 09:39:37;;;;;;;;;42.50;28.75;;;;;13.20;73.40;102098.03;5077952;27;46035;-78
2021/11/17 09:42:03;;;;;;;;;32.50;29.00;;;;;13.25;73.65;102108.75;5075763;27;46005;-78
2021/11/17 09:44:32;;;;;;;;;31.50;26.50;;;;;13.25;73.70;102119.38;5051597;27;45459;-81
2021/11/17 09:46:58;;;;;;;;;36.75;27.75;;;;;13.26;73.46;102113.19;5057951;28;45474;-80
2021/11/17 09:49:48;;;;;;;;;41.50;33.00;;;;;13.20;73.43;102105.97;5075290;27;45444;-78
2021/11/17 09:52:16;;;;;;;;;40.75;31.75;;;;;13.25;73.84;102112.31;5059727;28;61421;-81
2021/11/17 09:55:20;;;;;;;;;36.00;32.25;;;;;13.31;73.38;102120.38;5082083;27;45541;-82
2021/11/17 09:57:51;;;;;;;;;31.00;27.00;;;;;13.33;73.50;102123.09;5076326;27;45570;-81
2021/11/17 10:00:21;;;;;;;;;33.75;29.00;;;;;13.35;73.36;102114.28;5076656;27;45519;-81
2021/11/17 10:03:08;;;;;;;;;34.75;28.25;;;;;13.42;73.39;102122.34;5078668;27;47870;-83
2021/11/17 10:08:47;;;;;;;;;33.25;27.50;;;;;13.47;73.61;102126.00;5076737;27;46804;-79
2021/11/17 10:11:27;;;;;;;;;31.50;29.25;;;;;13.47;72.97;102131.31;5043856;27;46124;-81
2021/11/17 10:14:02;;;;;;;;;36.25;33.50;;;;;13.43;73.32;102129.47;5023653;28;47470;-81
2021/11/17 10:16:27;;;;;;;;;42.00;33.00;;;;;13.40;73.43;102127.66;5062559;27;45621;-79
2021/11/17 10:19:13;;;;;;;;;33.75;30.25;;;;;13.37;73.54;102132.91;5083766;27;45468;-80
2021/11/17 10:21:38;;;;;;;;;35.25;33.50;;;;;13.42;73.38;102136.53;5064409;27;45519;-81
2021/11/17 10:24:11;;;;;;;;;34.50;32.50;;;;;13.41;73.38;102133.84;5087898;27;46419;-78
2021/11/17 10:26:48;;;;;;;;;37.25;32.50;;;;;13.47;73.63;102139.28;5074926;27;45497;-83
2021/11/17 10:29:56;;;;;;;;;43.50;31.50;;;;;13.47;73.68;102131.31;5056289;27;45534;-81
2021/11/17 10:32:25;;;;;;;;;32.75;27.50;;;;;13.47;73.64;102139.28;5050081;28;45408;-80
2021/11/17 10:34:50;;;;;;;;;39.75;32.25;;;;;13.47;73.61;102136.63;5076515;28;46610;-82
2021/11/17 10:37:32;;;;;;;;;38.00;32.50;;;;;13.34;73.70;102115.16;5080946;27;45537;-81
2021/11/17 10:39:59;;;;;;;;;36.00;33.50;;;;;13.51;73.51;102130.50;5077491;27;45578;-81
2021/11/17 10:42:38;;;;;;;;;36.50;28.50;;;;;13.60;73.34;102136.00;5091392;27;45428;-80
2021/11/17 10:45:23;;;;;;;;;36.25;28.00;;;;;13.77;73.29;102139.88;5049653;28;47882;-79
2021/11/17 10:47:49;;;;;;;;;33.00;29.50;;;;;13.91;73.29;102131.28;5062645;27;45471;-78
2021/11/17 10:50:37;;;;;;;;;46.50;31.50;;;;;14.01;73.09;102141.16;5049207;27;45513;-83
2021/11/17 10:53:06;;;;;;;;;33.25;29.50;;;;;14.09;72.71;102140.44;5065779;27;45681;-82
2021/11/17 10:55:34;;;;;;;;;33.25;28.50;;;;;14.18;72.39;102134.41;5079473;27;46439;-80
2021/11/17 10:58:01;;;;;;;;;40.50;31.00;;;;;14.18;72.54;102123.78;5078090;27;45381;-82
2021/11/17 11:00:34;;;;;;;;;41.25;32.75;;;;;14.26;72.11;102131.88;5078560;28;45433;-79
2021/11/17 11:02:59;;;;;;;;;30.50;27.25;;;;;14.34;72.35;102130.25;5080947;27;46045;-80
2021/11/17 11:05:38;;;;;;;;;29.75;27.00;;;;;14.39;71.79;102133.88;5077581;27;48667;-80
2021/11/17 11:08:15;;;;;;;;;31.50;26.25;;;;;14.42;72.08;102137.47;5089185;27;45574;-77
2021/11/17 11:10:52;;;;;;;;;36.75;28.25;;;;;14.42;71.97;102131.25;5060750;27;46286;-80
2021/11/17 11:13:48;;;;;;;;;29.50;26.50;;;;;14.38;71.25;102132.06;5042808;28;45570;-80
2021/11/17 11:16:24;;;;;;;;;27.33;25.33;;;;;14.40;71.73;102131.25;5065051;28;45619;-76
2021/11/17 11:19:13;;;;;;;;;31.50;30.25;;;;;14.45;71.56;102122.47;5061363;27;45554;-79
2021/11/17 11:21:41;;;;;;;;;28.25;26.50;;;;;14.49;72.01;102124.31;5072519;27;45312;-79
2021/11/17 11:24:27;;;;;;;;;32.00;29.50;;;;;14.50;71.47;102108.41;5092386;27;45597;-78
2021/11/17 11:26:59;;;;;;;;;29.75;24.50;;;;;14.60;71.14;102115.66;5091111;27;47666;-78
2021/11/17 11:29:37;;;;;;;;;31.75;26.75;;;;;14.58;71.45;102111.16;5087949;27;45462;-77
2021/11/17 11:32:10;;;;;;;;;26.33;25.33;;;;;14.61;71.32;102111.22;5044875;28;45365;-78
2021/11/17 11:34:41;;;;;;;;;29.67;22.67;;;;;14.65;70.98;102119.28;5057579;28;45451;-81
2021/11/17 11:37:30;;;;;;;;;29.00;25.00;;;;;14.63;71.30;102105.03;5078210;27;47578;-78
2021/11/17 11:40:04;;;;;;;;;31.25;26.50;;;;;14.65;71.23;102118.38;5081765;27;45430;-78
2021/11/17 11:42:48;;;;;;;;;30.67;24.67;;;;;14.61;70.99;102109.44;5079895;27;45365;-75
2021/11/17 11:45:26;;;;;;;;;24.33;22.00;;;;;14.56;71.41;102113.81;5079199;27;45613;-76
2021/11/17 11:47:58;;;;;;;;;26.33;23.00;;;;;14.52;71.24;102111.97;5077731;27;46313;-77
2021/11/17 11:50:30;;;;;;;;;21.33;21.33;;;;;14.56;71.83;102112.91;5085656;27;45507;-77
2021/11/17 11:52:59;;;;;;;;;22.33;19.67;;;;;14.67;71.25;102112.19;5073560;27;45535;-75
2021/11/17 11:55:25;;;;;;;;;21.67;19.00;;;;;14.81;71.27;102100.88;5080561;27;45412;-76
2021/11/17 11:58:20;;;;;;;;;26.00;21.00;;;;;15.03;70.78;102102.94;5077348;27;46829;-74
2021/11/17 12:01:18;;;;;;;;;25.00;17.67;;;;;15.16;70.95;102090.69;5079930;27;45577;-76
2021/11/17 12:03:49;;;;;;;;;19.00;17.67;;;;;15.24;70.22;102102.31;5070714;27;45305;-77
2021/11/17 12:06:44;;;;;;;;;25.00;16.33;;;;;15.28;69.81;102098.81;5059041;28;45296;-79
2021/11/17 12:09:17;;;;;;;;;21.33;18.00;;;;;15.34;70.43;102098.91;5053088;28;47518;-79
2021/11/17 12:11:51;;;;;;;;;15.67;15.00;;;;;15.35;69.88;102095.38;5086581;27;45468;-85
2021/11/17 12:14:31;;;;;;;;;18.33;16.33;;;;;15.34;69.83;102096.25;5045975;28;45431;-79
2021/11/17 12:16:57;;;;;;;;;18.67;15.00;;;;;15.28;69.76;102092.59;5078923;27;47155;-79
2021/11/17 12:19:34;;;;;;;;;20.33;19.67;;;;;15.24;69.55;102093.47;5062388;27;52532;-81
2021/11/17 12:22:19;;;;;;;;;22.00;18.00;;;;;15.23;69.93;102099.63;5078621;27;45542;-79
2021/11/17 12:24:58;;;;;;;;;20.00;18.33;;;;;15.27;70.13;102098.78;5066076;27;45451;-79
2021/11/17 12:27:30;;;;;;;;;23.00;17.67;;;;;15.37;70.12;102101.59;5063722;27;45479;-78
2021/11/17 12:30:10;;;;;;;;;19.00;13.67;;;;;15.48;69.86;102112.34;5082533;27;47371;-79
2021/11/17 12:32:40;;;;;;;;;22.00;17.00;;;;;15.54;69.80;102111.53;5077076;27;45499;-79
2021/11/17 12:35:18;;;;;;;;;7.00;7.00;;;;;15.59;67.95;102115.13;5057183;28;45467;-78
2021/11/17 12:37:57;;;;;;;;;9.00;6.00;;;;;15.65;68.29;102108.13;5076974;28;45388;-79
2021/11/17 12:40:38;;;;;;;;;6.00;5.33;;;;;15.67;68.26;102105.50;5075006;28;45748;-78
2021/11/17 12:43:12;;;;;;;;;6.00;5.00;;;;;15.59;67.90;102099.16;5065855;27;45554;-78
2021/11/17 12:45:49;;;;;;;;;6.00;6.00;;;;;15.53;68.33;102109.75;5074267;27;45542;-78
2021/11/17 12:48:25;;;;;;;;;6.00;4.00;;;;;15.41;68.46;102105.19;5082075;27;45922;-77
2021/11/17 12:51:20;;;;;;;;;8.00;5.33;;;;;15.43;68.54;102109.63;5080141;27;46860;-78
2021/11/17 12:53:57;;;;;;;;;5.00;5.00;;;;;15.40;67.99;102100.75;5042801;28;45531;-78
2021/11/17 12:56:32;;;;;;;;;4.00;4.00;;;;;15.36;68.32;102104.22;5057835;28;45264;-77
2021/11/17 12:59:23;;;;;;;;;7.00;5.00;;;;;15.28;68.41;102108.56;5044083;27;45555;-79
2021/11/17 13:02:00;;;;;;;;;6.00;6.00;;;;;15.14;69.31;102098.66;5043766;27;47658;-80
2021/11/17 13:04:46;;;;;;;;;6.67;5.67;;;;;15.11;69.05;102106.59;5071601;27;45577;-77
2021/11/17 13:07:13;;;;;;;;;8.33;4.33;;;;;15.01;68.92;102093.16;5066754;27;45496;-78
2021/11/17 13:09:42;;;;;;;;;6.67;6.00;;;;;15.00;69.51;102105.56;5071747;27;45625;-78
2021/11/17 13:12:08;;;;;;;;;9.67;6.00;;;;;14.98;69.40;102109.09;5059547;28;46417;-76
2021/11/17 13:15:11;;;;;;;;;4.33;4.00;;;;;14.93;69.57;102098.38;5077062;27;45438;-77
2021/11/17 13:17:42;;;;;;;;;6.00;6.00;;;;;14.94;70.01;102097.50;5075460;27;45595;-78
2021/11/17 13:20:13;;;;;;;;;6.67;5.00;;;;;14.99;69.60;102113.53;5069112;27;45525;-78
2021/11/17 13:22:43;;;;;;;;;7.67;7.00;;;;;14.95;69.57;102107.25;5074431;27;46571;-78
2021/11/17 13:25:26;;;;;;;;;5.00;3.33;;;;;15.00;69.62;102120.63;5073079;27;45539;-79
2021/11/17 13:28:03;;;;;;;;;5.67;5.00;;;;;14.97;69.53;102118.84;5072130;27;45651;-82
2021/11/17 13:30:43;;;;;;;;;9.00;6.00;;;;;14.96;69.73;102119.69;5050330;28;45369;-80
2021/11/17 13:33:32;;;;;;;;;7.00;5.00;;;;;14.99;69.02;102118.84;5060197;27;45684;-78
2021/11/17 13:36:23;;;;;;;;;7.00;6.00;;;;;14.90;69.16;102106.31;5078864;27;45542;-77
2021/11/17 13:38:52;;;;;;;;;3.67;3.00;;;;;15.00;69.02;102117.97;5062205;27;45517;-78
2021/11/17 13:41:18;;;;;;;;;5.33;5.33;;;;;15.02;69.34;102133.09;5061199;27;45550;-79
2021/11/17 13:43:43;;;;;;;;;6.33;4.00;;;;;15.03;69.10;102131.31;5056110;28;45758;-78
2021/11/17 13:46:09;;;;;;;;;7.00;7.00;;;;;15.06;69.65;102124.25;5061440;28;59479;-79
2021/11/17 13:48:38;;;;;;;;;9.00;6.00;;;;;15.18;68.98;102137.75;5070255;27;46840;-78
2021/11/17 13:51:03;;;;;;;;;7.33;6.00;;;;;15.24;68.75;102128.06;5080527;27;45634;-80
2021/11/17 13:53:29;;;;;;;;;7.00;6.00;;;;;15.35;68.71;102121.97;5054434;28;46455;-77
2021/11/17 13:56:00;;;;;;;;;6.33;5.33;;;;;15.35;68.09;102123.75;5081337;27;45742;-79
2021/11/17 13:58:25;;;;;;;;;5.67;5.00;;;;;15.31;68.10;102125.47;5077219;27;45593;-78
2021/11/17 14:00:51;;;;;;;;;8.00;6.67;;;;;15.28;68.25;102121.88;5062517;27;52209;-79
2021/11/17 14:03:16;;;;;;;;;7.33;7.33;;;;;15.33;68.18;102125.47;5079714;27;46229;-77
2021/11/17 14:05:43;;;;;;;;;4.67;4.67;;;;;15.33;67.96;102128.13;5054318;27;45389;-78
2021/11/17 14:08:09;;;;;;;;;5.33;5.33;;;;;15.36;67.80;102125.53;5041869;28;45381;-79
2021/11/17 14:10:34;;;;;;;;;7.33;5.00;;;;;15.35;66.71;102129.97;5083936;27;45475;-78
2021/11/17 14:13:01;;;;;;;;;6.33;5.00;;;;;15.30;67.41;102125.47;5085683;27;45514;-78
2021/11/17 14:15:26;;;;;;;;;5.67;5.00;;;;;15.33;67.36;102136.13;5068212;28;45453;-80
2021/11/17 14:17:52;;;;;;;;;6.67;6.00;;;;;15.32;67.48;102131.69;5078876;28;45498;-77
2021/11/17 14:20:17;;;;;;;;;6.00;4.00;;;;;15.35;67.28;102127.31;5079110;28;45349;-78
2021/11/17 14:22:43;;;;;;;;;4.67;4.67;;;;;15.46;67.10;102138.06;5041683;27;45517;-80
2021/11/17 14:25:15;;;;;;;;;5.67;5.67;;;;;15.56;67.22;102136.41;5089416;27;58117;-79
2021/11/17 14:27:43;;;;;;;;;6.67;5.00;;;;;15.61;65.50;102137.38;5066912;27;45442;-73
2021/11/17 14:30:12;;;;;;;;;8.00;6.00;;;;;15.63;66.70;102143.63;5063927;27;45639;-76
2021/11/17 14:32:39;;;;;;;;;6.00;6.00;;;;;15.64;66.86;102135.63;5065534;28;47395;-75
2021/11/17 14:35:05;;;;;;;;;6.00;6.00;;;;;15.61;66.16;102130.25;5089623;27;45424;-77
2021/11/17 14:37:31;;;;;;;;;5.00;5.00;;;;;15.62;66.75;102136.47;5081916;27;45148;-75